sensor_id;sensor_type;location;lat;lon;timestamp;P1;durP1;ratioP1;P2;durP2;ratioP2
60851;SDS011;48553;50.766;2.900;2023-03-31T00:01:20;8.68;;;1.33;;
60851;SDS011;48553;50.766;2.900;2023-03-31T00:04:23;9.80;;;1.70;;
60851;SDS011;48553;50.766;2.900;2023-03-31T00:07:25;10.50;;;1.75;;
60851;SDS011;48553;50.766;2.900;2023-03-31T00:10:26;10.65;;;1.70;;
60851;SDS011;48553;50.766;2.900;2023-03-31T00:13:29;11.27;;;1.90;;
60851;SDS011;48553;50.766;2.900;2023-03-31T00:16:30;9.38;;;1.52;;
60851;SDS011;48553;50.766;2.900;2023-03-31T00:19:30;10.73;;;1.88;;
60851;SDS011;48553;50.766;2.900;2023-03-31T00:22:32;10.77;;;1.65;;
60851;SDS011;48553;50.766;2.900;2023-03-31T00:25:32;10.02;;;1.90;;
60851;SDS011;48553;50.766;2.900;2023-03-31T00:28:32;10.32;;;1.90;;
60851;SDS011;48553;50.766;2.900;2023-03-31T00:31:33;11.20;;;1.95;;
60851;SDS011;48553;50.766;2.900;2023-03-31T00:34:34;13.75;;;2.22;;
60851;SDS011;48553;50.766;2.900;2023-03-31T00:37:37;11.80;;;1.75;;
60851;SDS011;48553;50.766;2.900;2023-03-31T00:40:37;10.52;;;1.75;;
60851;SDS011;48553;50.766;2.900;2023-03-31T00:44:01;6.97;;;1.65;;
60851;SDS011;48553;50.766;2.900;2023-03-31T00:47:06;13.65;;;1.95;;
60851;SDS011;48553;50.766;2.900;2023-03-31T00:50:16;10.00;;;1.90;;
60851;SDS011;48553;50.766;2.900;2023-03-31T00:56:39;9.23;;;1.40;;
60851;SDS011;48553;50.766;2.900;2023-03-31T00:59:46;8.43;;;1.65;;
60851;SDS011;48553;50.766;2.900;2023-03-31T01:02:54;9.73;;;1.88;;
60851;SDS011;48553;50.766;2.900;2023-03-31T01:06:03;12.68;;;1.98;;
60851;SDS011;48553;50.766;2.900;2023-03-31T01:09:05;11.38;;;1.98;;
60851;SDS011;48553;50.766;2.900;2023-03-31T01:12:06;9.95;;;1.55;;
60851;SDS011;48553;50.766;2.900;2023-03-31T01:15:08;10.77;;;1.70;;
60851;SDS011;48553;50.766;2.900;2023-03-31T01:18:09;9.45;;;1.45;;
60851;SDS011;48553;50.766;2.900;2023-03-31T01:42:24;10.13;;;2.05;;
60851;SDS011;48553;50.766;2.900;2023-03-31T01:52:23;11.77;;;1.67;;
60851;SDS011;48553;50.766;2.900;2023-03-31T01:58:39;10.55;;;2.05;;
60851;SDS011;48553;50.766;2.900;2023-03-31T02:01:50;8.23;;;1.73;;
60851;SDS011;48553;50.766;2.900;2023-03-31T02:04:53;8.30;;;1.75;;
60851;SDS011;48553;50.766;2.900;2023-03-31T02:08:03;7.63;;;1.50;;
60851;SDS011;48553;50.766;2.900;2023-03-31T02:11:09;6.53;;;1.50;;
60851;SDS011;48553;50.766;2.900;2023-03-31T02:14:11;9.60;;;1.42;;
60851;SDS011;48553;50.766;2.900;2023-03-31T02:17:18;8.45;;;1.30;;
60851;SDS011;48553;50.766;2.900;2023-03-31T02:20:29;3.83;;;1.00;;
60851;SDS011;48553;50.766;2.900;2023-03-31T02:23:31;5.60;;;0.98;;
60851;SDS011;48553;50.766;2.900;2023-03-31T02:26:35;7.47;;;1.00;;
60851;SDS011;48553;50.766;2.900;2023-03-31T02:29:40;4.85;;;1.10;;
60851;SDS011;48553;50.766;2.900;2023-03-31T02:32:42;5.32;;;0.90;;
60851;SDS011;48553;50.766;2.900;2023-03-31T02:35:43;5.25;;;1.00;;
60851;SDS011;48553;50.766;2.900;2023-03-31T02:38:49;5.78;;;1.20;;
60851;SDS011;48553;50.766;2.900;2023-03-31T02:41:54;5.05;;;1.10;;
60851;SDS011;48553;50.766;2.900;2023-03-31T02:45:05;3.85;;;1.10;;
60851;SDS011;48553;50.766;2.900;2023-03-31T02:48:27;3.85;;;0.95;;
60851;SDS011;48553;50.766;2.900;2023-03-31T02:55:02;4.50;;;0.90;;
60851;SDS011;48553;50.766;2.900;2023-03-31T02:58:35;2.08;;;0.80;;
60851;SDS011;48553;50.766;2.900;2023-03-31T03:01:51;3.55;;;0.60;;
60851;SDS011;48553;50.766;2.900;2023-03-31T03:05:04;4.03;;;0.70;;
60851;SDS011;48553;50.766;2.900;2023-03-31T03:11:25;2.53;;;0.50;;
60851;SDS011;48553;50.766;2.900;2023-03-31T03:17:39;2.85;;;0.57;;
60851;SDS011;48553;50.766;2.900;2023-03-31T03:20:43;2.63;;;0.45;;
60851;SDS011;48553;50.766;2.900;2023-03-31T03:23:48;3.13;;;0.63;;
60851;SDS011;48553;50.766;2.900;2023-03-31T03:26:48;2.08;;;0.57;;
60851;SDS011;48553;50.766;2.900;2023-03-31T03:29:49;2.17;;;0.45;;
60851;SDS011;48553;50.766;2.900;2023-03-31T03:32:50;3.88;;;0.50;;
60851;SDS011;48553;50.766;2.900;2023-03-31T03:35:50;2.25;;;0.65;;
60851;SDS011;48553;50.766;2.900;2023-03-31T03:38:50;5.40;;;1.42;;
60851;SDS011;48553;50.766;2.900;2023-03-31T03:41:51;3.97;;;0.80;;
60851;SDS011;48553;50.766;2.900;2023-03-31T03:44:51;4.07;;;0.70;;
60851;SDS011;48553;50.766;2.900;2023-03-31T03:47:52;2.17;;;0.60;;
60851;SDS011;48553;50.766;2.900;2023-03-31T03:50:52;3.53;;;0.70;;
60851;SDS011;48553;50.766;2.900;2023-03-31T03:53:53;2.53;;;0.55;;
60851;SDS011;48553;50.766;2.900;2023-03-31T03:56:53;2.92;;;0.50;;
60851;SDS011;48553;50.766;2.900;2023-03-31T03:59:54;2.78;;;0.55;;
60851;SDS011;48553;50.766;2.900;2023-03-31T04:02:54;3.55;;;0.70;;
60851;SDS011;48553;50.766;2.900;2023-03-31T04:05:55;2.28;;;0.60;;
60851;SDS011;48553;50.766;2.900;2023-03-31T04:08:55;2.50;;;0.70;;
60851;SDS011;48553;50.766;2.900;2023-03-31T04:11:56;3.90;;;0.88;;
60851;SDS011;48553;50.766;2.900;2023-03-31T04:14:56;4.47;;;1.15;;
60851;SDS011;48553;50.766;2.900;2023-03-31T04:17:56;5.40;;;1.00;;
60851;SDS011;48553;50.766;2.900;2023-03-31T04:20:57;4.80;;;1.10;;
60851;SDS011;48553;50.766;2.900;2023-03-31T04:24:06;3.72;;;1.10;;
60851;SDS011;48553;50.766;2.900;2023-03-31T04:27:06;3.50;;;0.88;;
60851;SDS011;48553;50.766;2.900;2023-03-31T04:30:07;3.13;;;0.80;;
60851;SDS011;48553;50.766;2.900;2023-03-31T04:33:08;5.35;;;0.98;;
60851;SDS011;48553;50.766;2.900;2023-03-31T04:36:08;4.45;;;0.98;;
60851;SDS011;48553;50.766;2.900;2023-03-31T04:39:18;3.28;;;0.77;;
60851;SDS011;48553;50.766;2.900;2023-03-31T04:42:29;6.43;;;0.88;;
60851;SDS011;48553;50.766;2.900;2023-03-31T04:45:29;5.40;;;0.90;;
60851;SDS011;48553;50.766;2.900;2023-03-31T04:48:30;6.03;;;0.90;;
60851;SDS011;48553;50.766;2.900;2023-03-31T04:51:30;5.05;;;1.13;;
60851;SDS011;48553;50.766;2.900;2023-03-31T04:54:31;6.20;;;1.20;;
60851;SDS011;48553;50.766;2.900;2023-03-31T04:57:31;6.70;;;1.33;;
60851;SDS011;48553;50.766;2.900;2023-03-31T05:00:32;7.45;;;1.58;;
60851;SDS011;48553;50.766;2.900;2023-03-31T05:03:33;5.63;;;1.40;;
60851;SDS011;48553;50.766;2.900;2023-03-31T05:06:33;8.35;;;1.60;;
60851;SDS011;48553;50.766;2.900;2023-03-31T05:09:34;11.60;;;2.03;;
60851;SDS011;48553;50.766;2.900;2023-03-31T05:12:35;9.43;;;2.10;;
60851;SDS011;48553;50.766;2.900;2023-03-31T05:15:37;11.43;;;1.73;;
60851;SDS011;48553;50.766;2.900;2023-03-31T05:18:38;12.52;;;2.13;;
60851;SDS011;48553;50.766;2.900;2023-03-31T05:21:41;11.65;;;1.83;;
60851;SDS011;48553;50.766;2.900;2023-03-31T05:24:42;12.90;;;2.28;;
60851;SDS011;48553;50.766;2.900;2023-03-31T05:27:43;11.23;;;2.30;;
60851;SDS011;48553;50.766;2.900;2023-03-31T05:30:46;15.17;;;2.20;;
60851;SDS011;48553;50.766;2.900;2023-03-31T05:33:47;9.73;;;1.80;;
60851;SDS011;48553;50.766;2.900;2023-03-31T05:36:48;9.77;;;2.13;;
60851;SDS011;48553;50.766;2.900;2023-03-31T05:39:50;13.27;;;2.05;;
60851;SDS011;48553;50.766;2.900;2023-03-31T05:42:51;11.43;;;2.13;;
60851;SDS011;48553;50.766;2.900;2023-03-31T05:45:51;12.35;;;2.35;;
60851;SDS011;48553;50.766;2.900;2023-03-31T05:48:52;12.25;;;2.25;;
60851;SDS011;48553;50.766;2.900;2023-03-31T05:51:52;11.20;;;2.10;;
60851;SDS011;48553;50.766;2.900;2023-03-31T05:54:52;12.95;;;2.10;;
60851;SDS011;48553;50.766;2.900;2023-03-31T05:57:53;13.05;;;2.38;;
60851;SDS011;48553;50.766;2.900;2023-03-31T06:01:27;12.38;;;2.30;;
60851;SDS011;48553;50.766;2.900;2023-03-31T06:04:21;12.02;;;2.17;;
60851;SDS011;48553;50.766;2.900;2023-03-31T06:07:23;10.70;;;2.13;;
60851;SDS011;48553;50.766;2.900;2023-03-31T06:10:24;11.85;;;2.38;;
60851;SDS011;48553;50.766;2.900;2023-03-31T06:13:24;14.65;;;2.30;;
60851;SDS011;48553;50.766;2.900;2023-03-31T06:16:25;12.18;;;2.35;;
60851;SDS011;48553;50.766;2.900;2023-03-31T06:19:25;14.43;;;2.80;;
60851;SDS011;48553;50.766;2.900;2023-03-31T06:22:25;11.75;;;2.60;;
60851;SDS011;48553;50.766;2.900;2023-03-31T06:25:26;12.45;;;2.55;;
60851;SDS011;48553;50.766;2.900;2023-03-31T06:28:26;12.85;;;2.53;;
60851;SDS011;48553;50.766;2.900;2023-03-31T06:31:27;13.48;;;2.45;;
60851;SDS011;48553;50.766;2.900;2023-03-31T06:34:27;15.48;;;2.53;;
60851;SDS011;48553;50.766;2.900;2023-03-31T06:37:28;16.00;;;2.63;;
60851;SDS011;48553;50.766;2.900;2023-03-31T06:40:28;13.00;;;2.05;;
60851;SDS011;48553;50.766;2.900;2023-03-31T06:43:29;16.35;;;2.63;;
60851;SDS011;48553;50.766;2.900;2023-03-31T06:46:29;14.27;;;2.45;;
60851;SDS011;48553;50.766;2.900;2023-03-31T06:49:30;15.18;;;2.67;;
60851;SDS011;48553;50.766;2.900;2023-03-31T06:52:31;14.63;;;2.72;;
60851;SDS011;48553;50.766;2.900;2023-03-31T06:55:31;16.35;;;2.85;;
60851;SDS011;48553;50.766;2.900;2023-03-31T06:58:32;15.65;;;2.97;;
60851;SDS011;48553;50.766;2.900;2023-03-31T07:01:33;18.48;;;2.97;;
60851;SDS011;48553;50.766;2.900;2023-03-31T07:04:36;15.43;;;2.95;;
60851;SDS011;48553;50.766;2.900;2023-03-31T07:07:36;13.48;;;2.92;;
60851;SDS011;48553;50.766;2.900;2023-03-31T07:10:37;18.85;;;2.55;;
60851;SDS011;48553;50.766;2.900;2023-03-31T07:13:37;14.13;;;2.85;;
60851;SDS011;48553;50.766;2.900;2023-03-31T07:16:37;14.45;;;2.78;;
60851;SDS011;48553;50.766;2.900;2023-03-31T07:19:38;19.80;;;2.70;;
60851;SDS011;48553;50.766;2.900;2023-03-31T07:22:41;18.95;;;2.97;;
60851;SDS011;48553;50.766;2.900;2023-03-31T07:25:42;18.40;;;2.90;;
60851;SDS011;48553;50.766;2.900;2023-03-31T07:28:43;15.40;;;2.53;;
60851;SDS011;48553;50.766;2.900;2023-03-31T07:31:45;21.45;;;2.92;;
60851;SDS011;48553;50.766;2.900;2023-03-31T07:34:46;16.92;;;3.00;;
60851;SDS011;48553;50.766;2.900;2023-03-31T07:37:47;18.17;;;2.92;;
60851;SDS011;48553;50.766;2.900;2023-03-31T07:40:48;15.40;;;2.55;;
60851;SDS011;48553;50.766;2.900;2023-03-31T07:43:49;17.75;;;2.67;;
60851;SDS011;48553;50.766;2.900;2023-03-31T07:46:50;12.20;;;2.55;;
60851;SDS011;48553;50.766;2.900;2023-03-31T07:49:50;11.98;;;2.60;;
60851;SDS011;48553;50.766;2.900;2023-03-31T07:52:51;18.02;;;2.70;;
60851;SDS011;48553;50.766;2.900;2023-03-31T07:55:51;19.15;;;3.10;;
60851;SDS011;48553;50.766;2.900;2023-03-31T07:58:52;13.80;;;2.70;;
60851;SDS011;48553;50.766;2.900;2023-03-31T08:01:52;11.35;;;2.05;;
60851;SDS011;48553;50.766;2.900;2023-03-31T08:04:52;15.27;;;2.60;;
60851;SDS011;48553;50.766;2.900;2023-03-31T08:07:53;14.63;;;2.47;;
60851;SDS011;48553;50.766;2.900;2023-03-31T08:10:53;14.73;;;2.13;;
60851;SDS011;48553;50.766;2.900;2023-03-31T08:13:54;12.93;;;1.90;;
60851;SDS011;48553;50.766;2.900;2023-03-31T08:16:55;13.80;;;2.20;;
60851;SDS011;48553;50.766;2.900;2023-03-31T08:19:56;16.88;;;2.33;;
60851;SDS011;48553;50.766;2.900;2023-03-31T08:22:57;13.38;;;2.38;;
60851;SDS011;48553;50.766;2.900;2023-03-31T08:26:18;12.23;;;2.25;;
60851;SDS011;48553;50.766;2.900;2023-03-31T08:29:18;9.20;;;2.00;;
60851;SDS011;48553;50.766;2.900;2023-03-31T08:35:30;13.50;;;1.98;;
60851;SDS011;48553;50.766;2.900;2023-03-31T08:38:30;12.13;;;2.10;;
60851;SDS011;48553;50.766;2.900;2023-03-31T08:44:39;12.07;;;2.03;;
60851;SDS011;48553;50.766;2.900;2023-03-31T08:47:49;9.50;;;2.00;;
60851;SDS011;48553;50.766;2.900;2023-03-31T08:51:11;16.25;;;2.63;;
60851;SDS011;48553;50.766;2.900;2023-03-31T08:57:31;11.75;;;2.25;;
60851;SDS011;48553;50.766;2.900;2023-03-31T09:00:45;11.55;;;2.05;;
60851;SDS011;48553;50.766;2.900;2023-03-31T09:07:04;12.60;;;2.10;;
60851;SDS011;48553;50.766;2.900;2023-03-31T09:13:46;11.45;;;2.35;;
60851;SDS011;48553;50.766;2.900;2023-03-31T09:17:23;13.48;;;2.22;;
60851;SDS011;48553;50.766;2.900;2023-03-31T09:20:47;11.73;;;2.00;;
60851;SDS011;48553;50.766;2.900;2023-03-31T09:23:56;14.00;;;2.35;;
60851;SDS011;48553;50.766;2.900;2023-03-31T09:27:04;18.58;;;2.15;;
60851;SDS011;48553;50.766;2.900;2023-03-31T09:30:15;13.23;;;2.00;;
60851;SDS011;48553;50.766;2.900;2023-03-31T09:33:25;9.55;;;2.13;;
60851;SDS011;48553;50.766;2.900;2023-03-31T09:36:31;10.70;;;1.92;;
60851;SDS011;48553;50.766;2.900;2023-03-31T09:39:32;12.90;;;2.15;;
60851;SDS011;48553;50.766;2.900;2023-03-31T09:42:33;13.50;;;2.15;;
60851;SDS011;48553;50.766;2.900;2023-03-31T09:45:34;10.98;;;2.17;;
60851;SDS011;48553;50.766;2.900;2023-03-31T09:48:35;14.75;;;2.55;;
60851;SDS011;48553;50.766;2.900;2023-03-31T09:51:38;11.95;;;2.33;;
60851;SDS011;48553;50.766;2.900;2023-03-31T09:54:45;14.30;;;2.10;;
60851;SDS011;48553;50.766;2.900;2023-03-31T09:57:49;15.43;;;2.63;;
60851;SDS011;48553;50.766;2.900;2023-03-31T10:01:03;12.35;;;2.45;;
60851;SDS011;48553;50.766;2.900;2023-03-31T10:04:07;15.23;;;2.35;;
60851;SDS011;48553;50.766;2.900;2023-03-31T10:07:10;8.73;;;2.30;;
60851;SDS011;48553;50.766;2.900;2023-03-31T10:10:18;13.45;;;2.45;;
60851;SDS011;48553;50.766;2.900;2023-03-31T10:13:28;20.88;;;2.30;;
60851;SDS011;48553;50.766;2.900;2023-03-31T10:19:53;16.00;;;2.13;;
60851;SDS011;48553;50.766;2.900;2023-03-31T10:22:58;15.63;;;2.70;;
60851;SDS011;48553;50.766;2.900;2023-03-31T10:26:02;10.63;;;2.15;;
60851;SDS011;48553;50.766;2.900;2023-03-31T10:29:09;9.45;;;2.05;;
60851;SDS011;48553;50.766;2.900;2023-03-31T10:32:16;9.68;;;1.67;;
60851;SDS011;48553;50.766;2.900;2023-03-31T10:35:26;5.70;;;1.60;;
60851;SDS011;48553;50.766;2.900;2023-03-31T10:38:37;12.95;;;1.83;;
60851;SDS011;48553;50.766;2.900;2023-03-31T10:41:41;6.20;;;1.67;;
60851;SDS011;48553;50.766;2.900;2023-03-31T10:44:42;8.23;;;1.60;;
60851;SDS011;48553;50.766;2.900;2023-03-31T10:47:43;10.88;;;1.60;;
60851;SDS011;48553;50.766;2.900;2023-03-31T10:50:49;9.80;;;1.80;;
60851;SDS011;48553;50.766;2.900;2023-03-31T10:53:50;7.72;;;1.55;;
60851;SDS011;48553;50.766;2.900;2023-03-31T10:56:55;7.97;;;1.50;;
60851;SDS011;48553;50.766;2.900;2023-03-31T11:00:03;8.20;;;1.42;;
60851;SDS011;48553;50.766;2.900;2023-03-31T11:03:12;8.77;;;1.45;;
60851;SDS011;48553;50.766;2.900;2023-03-31T11:10:06;7.53;;;1.40;;
60851;SDS011;48553;50.766;2.900;2023-03-31T11:16:27;7.95;;;1.50;;
60851;SDS011;48553;50.766;2.900;2023-03-31T11:29:45;8.15;;;1.63;;
60851;SDS011;48553;50.766;2.900;2023-03-31T11:39:39;4.93;;;1.13;;
60851;SDS011;48553;50.766;2.900;2023-03-31T11:43:49;6.13;;;1.05;;
60851;SDS011;48553;50.766;2.900;2023-03-31T11:46:22;6.03;;;1.20;;
60851;SDS011;48553;50.766;2.900;2023-03-31T11:49:26;8.10;;;1.08;;
60851;SDS011;48553;50.766;2.900;2023-03-31T11:52:31;6.32;;;1.15;;
60851;SDS011;48553;50.766;2.900;2023-03-31T11:55:36;5.57;;;1.00;;
60851;SDS011;48553;50.766;2.900;2023-03-31T11:58:54;8.60;;;1.30;;
60851;SDS011;48553;50.766;2.900;2023-03-31T12:04:58;6.60;;;0.98;;
60851;SDS011;48553;50.766;2.900;2023-03-31T12:08:10;5.05;;;1.10;;
60851;SDS011;48553;50.766;2.900;2023-03-31T12:14:34;5.68;;;1.02;;
60851;SDS011;48553;50.766;2.900;2023-03-31T12:17:43;10.13;;;1.17;;
60851;SDS011;48553;50.766;2.900;2023-03-31T12:20:49;4.55;;;1.05;;
60851;SDS011;48553;50.766;2.900;2023-03-31T12:23:52;8.38;;;1.20;;
60851;SDS011;48553;50.766;2.900;2023-03-31T12:32:58;11.60;;;1.40;;
60851;SDS011;48553;50.766;2.900;2023-03-31T12:36:29;9.27;;;1.40;;
60851;SDS011;48553;50.766;2.900;2023-03-31T12:52:39;8.63;;;1.30;;
60851;SDS011;48553;50.766;2.900;2023-03-31T12:55:53;6.90;;;1.30;;
60851;SDS011;48553;50.766;2.900;2023-03-31T12:59:12;9.93;;;1.40;;
60851;SDS011;48553;50.766;2.900;2023-03-31T13:02:20;11.43;;;1.33;;
60851;SDS011;48553;50.766;2.900;2023-03-31T13:08:53;7.35;;;1.05;;
60851;SDS011;48553;50.766;2.900;2023-03-31T13:12:13;8.88;;;1.38;;
60851;SDS011;48553;50.766;2.900;2023-03-31T13:15:16;12.30;;;1.50;;
60851;SDS011;48553;50.766;2.900;2023-03-31T13:18:17;9.68;;;1.35;;
60851;SDS011;48553;50.766;2.900;2023-03-31T13:21:20;7.32;;;1.35;;
60851;SDS011;48553;50.766;2.900;2023-03-31T13:24:21;9.60;;;1.83;;
60851;SDS011;48553;50.766;2.900;2023-03-31T13:27:30;11.30;;;1.60;;
60851;SDS011;48553;50.766;2.900;2023-03-31T13:33:38;9.45;;;1.50;;
60851;SDS011;48553;50.766;2.900;2023-03-31T13:36:47;6.47;;;1.17;;
60851;SDS011;48553;50.766;2.900;2023-03-31T13:47:01;9.35;;;1.27;;
60851;SDS011;48553;50.766;2.900;2023-03-31T13:54:06;9.27;;;1.17;;
60851;SDS011;48553;50.766;2.900;2023-03-31T14:08:11;11.15;;;1.15;;
60851;SDS011;48553;50.766;2.900;2023-03-31T14:11:14;10.80;;;1.50;;
60851;SDS011;48553;50.766;2.900;2023-03-31T14:14:25;9.80;;;1.55;;
60851;SDS011;48553;50.766;2.900;2023-03-31T14:17:27;12.05;;;2.00;;
60851;SDS011;48553;50.766;2.900;2023-03-31T14:20:40;12.77;;;1.95;;
60851;SDS011;48553;50.766;2.900;2023-03-31T14:31:02;14.38;;;2.55;;
60851;SDS011;48553;50.766;2.900;2023-03-31T14:37:23;14.50;;;2.08;;
60851;SDS011;48553;50.766;2.900;2023-03-31T14:40:27;13.35;;;2.47;;
60851;SDS011;48553;50.766;2.900;2023-03-31T14:43:28;17.02;;;2.17;;
60851;SDS011;48553;50.766;2.900;2023-03-31T14:46:35;13.27;;;1.75;;
60851;SDS011;48553;50.766;2.900;2023-03-31T14:49:37;13.30;;;2.13;;
60851;SDS011;48553;50.766;2.900;2023-03-31T14:52:38;14.90;;;2.00;;
60851;SDS011;48553;50.766;2.900;2023-03-31T14:55:39;15.55;;;2.10;;
60851;SDS011;48553;50.766;2.900;2023-03-31T14:58:41;14.52;;;2.17;;
60851;SDS011;48553;50.766;2.900;2023-03-31T15:01:45;11.98;;;1.85;;
60851;SDS011;48553;50.766;2.900;2023-03-31T15:04:48;12.18;;;1.70;;
60851;SDS011;48553;50.766;2.900;2023-03-31T15:07:50;11.57;;;1.70;;
60851;SDS011;48553;50.766;2.900;2023-03-31T15:10:52;10.38;;;1.63;;
60851;SDS011;48553;50.766;2.900;2023-03-31T15:13:55;7.30;;;1.58;;
60851;SDS011;48553;50.766;2.900;2023-03-31T15:16:56;12.02;;;1.73;;
60851;SDS011;48553;50.766;2.900;2023-03-31T15:19:57;12.63;;;1.95;;
60851;SDS011;48553;50.766;2.900;2023-03-31T15:23:00;13.27;;;2.33;;
60851;SDS011;48553;50.766;2.900;2023-03-31T15:26:03;14.10;;;2.35;;
60851;SDS011;48553;50.766;2.900;2023-03-31T15:29:11;14.55;;;2.58;;
60851;SDS011;48553;50.766;2.900;2023-03-31T15:32:25;16.15;;;2.90;;
60851;SDS011;48553;50.766;2.900;2023-03-31T15:35:29;17.10;;;2.67;;
60851;SDS011;48553;50.766;2.900;2023-03-31T15:38:31;19.92;;;2.95;;
60851;SDS011;48553;50.766;2.900;2023-03-31T15:41:32;17.77;;;2.95;;
60851;SDS011;48553;50.766;2.900;2023-03-31T15:47:39;17.27;;;2.28;;
60851;SDS011;48553;50.766;2.900;2023-03-31T15:50:48;10.50;;;2.10;;
60851;SDS011;48553;50.766;2.900;2023-03-31T15:53:51;14.38;;;2.60;;
60851;SDS011;48553;50.766;2.900;2023-03-31T15:56:52;16.10;;;2.40;;
60851;SDS011;48553;50.766;2.900;2023-03-31T15:59:58;10.45;;;2.15;;
60851;SDS011;48553;50.766;2.900;2023-03-31T16:02:59;18.30;;;2.28;;
60851;SDS011;48553;50.766;2.900;2023-03-31T16:06:04;13.15;;;2.33;;
60851;SDS011;48553;50.766;2.900;2023-03-31T16:09:08;14.70;;;1.90;;
60851;SDS011;48553;50.766;2.900;2023-03-31T16:12:19;14.05;;;2.58;;
60851;SDS011;48553;50.766;2.900;2023-03-31T16:18:34;21.42;;;2.85;;
60851;SDS011;48553;50.766;2.900;2023-03-31T16:21:42;17.27;;;2.35;;
60851;SDS011;48553;50.766;2.900;2023-03-31T16:24:46;20.58;;;2.90;;
60851;SDS011;48553;50.766;2.900;2023-03-31T16:27:49;16.38;;;2.50;;
60851;SDS011;48553;50.766;2.900;2023-03-31T16:33:54;17.95;;;2.65;;
60851;SDS011;48553;50.766;2.900;2023-03-31T16:36:56;16.42;;;2.53;;
60851;SDS011;48553;50.766;2.900;2023-03-31T16:39:56;17.10;;;2.88;;
60851;SDS011;48553;50.766;2.900;2023-03-31T16:43:06;14.77;;;2.47;;
60851;SDS011;48553;50.766;2.900;2023-03-31T16:46:09;16.13;;;2.70;;
60851;SDS011;48553;50.766;2.900;2023-03-31T16:49:09;19.27;;;2.85;;
60851;SDS011;48553;50.766;2.900;2023-03-31T16:52:10;18.55;;;2.92;;
60851;SDS011;48553;50.766;2.900;2023-03-31T16:55:11;15.18;;;2.60;;
60851;SDS011;48553;50.766;2.900;2023-03-31T16:58:11;18.23;;;2.60;;
60851;SDS011;48553;50.766;2.900;2023-03-31T17:01:12;13.25;;;2.47;;
60851;SDS011;48553;50.766;2.900;2023-03-31T17:04:13;16.15;;;2.47;;
60851;SDS011;48553;50.766;2.900;2023-03-31T17:07:13;17.90;;;2.78;;
60851;SDS011;48553;50.766;2.900;2023-03-31T17:10:13;19.48;;;2.92;;
60851;SDS011;48553;50.766;2.900;2023-03-31T17:13:15;23.15;;;3.45;;
60851;SDS011;48553;50.766;2.900;2023-03-31T17:16:15;17.48;;;3.22;;
60851;SDS011;48553;50.766;2.900;2023-03-31T17:19:16;20.48;;;3.40;;
60851;SDS011;48553;50.766;2.900;2023-03-31T17:22:17;20.80;;;2.97;;
60851;SDS011;48553;50.766;2.900;2023-03-31T17:25:17;22.92;;;3.88;;
60851;SDS011;48553;50.766;2.900;2023-03-31T17:28:18;25.33;;;3.65;;
60851;SDS011;48553;50.766;2.900;2023-03-31T17:31:19;18.35;;;3.05;;
60851;SDS011;48553;50.766;2.900;2023-03-31T17:34:20;20.67;;;2.80;;
60851;SDS011;48553;50.766;2.900;2023-03-31T17:37:21;23.90;;;3.50;;
60851;SDS011;48553;50.766;2.900;2023-03-31T17:40:22;16.50;;;2.50;;
60851;SDS011;48553;50.766;2.900;2023-03-31T17:43:23;15.85;;;2.78;;
60851;SDS011;48553;50.766;2.900;2023-03-31T17:46:23;16.83;;;3.00;;
60851;SDS011;48553;50.766;2.900;2023-03-31T17:49:24;13.43;;;2.40;;
60851;SDS011;48553;50.766;2.900;2023-03-31T17:52:25;23.83;;;3.25;;
60851;SDS011;48553;50.766;2.900;2023-03-31T17:55:25;13.35;;;2.42;;
60851;SDS011;48553;50.766;2.900;2023-03-31T17:58:26;17.67;;;2.53;;
60851;SDS011;48553;50.766;2.900;2023-03-31T18:01:27;17.55;;;2.95;;
60851;SDS011;48553;50.766;2.900;2023-03-31T18:04:27;15.52;;;2.78;;
60851;SDS011;48553;50.766;2.900;2023-03-31T18:07:28;18.67;;;3.08;;
60851;SDS011;48553;50.766;2.900;2023-03-31T18:10:30;21.13;;;2.85;;
60851;SDS011;48553;50.766;2.900;2023-03-31T18:13:32;21.02;;;2.85;;
60851;SDS011;48553;50.766;2.900;2023-03-31T18:16:33;19.40;;;3.10;;
60851;SDS011;48553;50.766;2.900;2023-03-31T18:19:34;18.05;;;3.00;;
60851;SDS011;48553;50.766;2.900;2023-03-31T18:22:35;14.85;;;2.55;;
60851;SDS011;48553;50.766;2.900;2023-03-31T18:25:36;22.92;;;2.88;;
60851;SDS011;48553;50.766;2.900;2023-03-31T18:28:36;20.30;;;3.10;;
60851;SDS011;48553;50.766;2.900;2023-03-31T18:31:39;16.48;;;3.08;;
60851;SDS011;48553;50.766;2.900;2023-03-31T18:34:39;14.93;;;2.35;;
60851;SDS011;48553;50.766;2.900;2023-03-31T18:37:40;15.13;;;2.67;;
60851;SDS011;48553;50.766;2.900;2023-03-31T18:40:45;16.80;;;2.55;;
60851;SDS011;48553;50.766;2.900;2023-03-31T18:43:47;15.93;;;2.53;;
60851;SDS011;48553;50.766;2.900;2023-03-31T18:46:51;19.73;;;2.63;;
60851;SDS011;48553;50.766;2.900;2023-03-31T18:49:51;17.63;;;3.10;;
60851;SDS011;48553;50.766;2.900;2023-03-31T18:52:54;20.77;;;2.80;;
60851;SDS011;48553;50.766;2.900;2023-03-31T18:55:56;17.08;;;3.08;;
60851;SDS011;48553;50.766;2.900;2023-03-31T18:58:57;17.55;;;2.78;;
60851;SDS011;48553;50.766;2.900;2023-03-31T19:01:58;21.02;;;3.03;;
60851;SDS011;48553;50.766;2.900;2023-03-31T19:04:59;19.35;;;3.30;;
60851;SDS011;48553;50.766;2.900;2023-03-31T19:07:59;17.40;;;3.08;;
60851;SDS011;48553;50.766;2.900;2023-03-31T19:11:08;19.13;;;3.33;;
60851;SDS011;48553;50.766;2.900;2023-03-31T19:14:10;18.65;;;3.13;;
60851;SDS011;48553;50.766;2.900;2023-03-31T19:17:11;20.60;;;2.78;;
60851;SDS011;48553;50.766;2.900;2023-03-31T19:20:12;19.42;;;2.95;;
60851;SDS011;48553;50.766;2.900;2023-03-31T19:23:15;20.15;;;3.17;;
60851;SDS011;48553;50.766;2.900;2023-03-31T19:26:16;15.85;;;2.45;;
60851;SDS011;48553;50.766;2.900;2023-03-31T19:29:18;16.30;;;3.17;;
60851;SDS011;48553;50.766;2.900;2023-03-31T19:32:18;19.60;;;2.97;;
60851;SDS011;48553;50.766;2.900;2023-03-31T19:35:19;20.10;;;3.00;;
60851;SDS011;48553;50.766;2.900;2023-03-31T19:38:21;20.17;;;2.92;;
60851;SDS011;48553;50.766;2.900;2023-03-31T19:41:21;19.23;;;3.28;;
60851;SDS011;48553;50.766;2.900;2023-03-31T19:44:22;24.55;;;3.42;;
60851;SDS011;48553;50.766;2.900;2023-03-31T19:47:22;22.73;;;3.30;;
60851;SDS011;48553;50.766;2.900;2023-03-31T19:50:22;20.77;;;3.40;;
60851;SDS011;48553;50.766;2.900;2023-03-31T19:53:23;21.85;;;3.17;;
60851;SDS011;48553;50.766;2.900;2023-03-31T19:56:24;21.27;;;3.30;;
60851;SDS011;48553;50.766;2.900;2023-03-31T19:59:25;18.35;;;3.40;;
60851;SDS011;48553;50.766;2.900;2023-03-31T20:02:26;16.83;;;2.70;;
60851;SDS011;48553;50.766;2.900;2023-03-31T20:05:27;21.63;;;2.92;;
60851;SDS011;48553;50.766;2.900;2023-03-31T20:08:30;21.15;;;3.05;;
60851;SDS011;48553;50.766;2.900;2023-03-31T20:11:31;15.60;;;2.47;;
60851;SDS011;48553;50.766;2.900;2023-03-31T20:14:31;19.13;;;2.75;;
60851;SDS011;48553;50.766;2.900;2023-03-31T20:17:32;19.17;;;2.83;;
60851;SDS011;48553;50.766;2.900;2023-03-31T20:20:32;18.33;;;2.80;;
60851;SDS011;48553;50.766;2.900;2023-03-31T20:23:33;21.38;;;2.70;;
60851;SDS011;48553;50.766;2.900;2023-03-31T20:26:35;15.52;;;2.35;;
60851;SDS011;48553;50.766;2.900;2023-03-31T20:29:35;14.77;;;2.60;;
60851;SDS011;48553;50.766;2.900;2023-03-31T20:32:39;18.15;;;2.63;;
60851;SDS011;48553;50.766;2.900;2023-03-31T20:35:40;20.40;;;2.80;;
60851;SDS011;48553;50.766;2.900;2023-03-31T20:38:41;17.08;;;2.50;;
60851;SDS011;48553;50.766;2.900;2023-03-31T20:44:46;17.73;;;2.78;;
60851;SDS011;48553;50.766;2.900;2023-03-31T20:47:46;17.80;;;2.45;;
60851;SDS011;48553;50.766;2.900;2023-03-31T20:50:47;16.35;;;2.45;;
60851;SDS011;48553;50.766;2.900;2023-03-31T20:53:48;18.67;;;2.75;;
60851;SDS011;48553;50.766;2.900;2023-03-31T20:56:51;19.67;;;2.55;;
60851;SDS011;48553;50.766;2.900;2023-03-31T20:59:52;10.63;;;2.38;;